sensor_id;sensor_type;location;lat;lon;timestamp;pressure;altitude;pressure_sealevel;temperature;humidity
75998;BME280;64685;48.762;44.822;2023-04-24T00:04:53;101626.00;;;9.99;70.70
75998;BME280;64685;48.762;44.822;2023-04-24T00:09:55;101627.63;;;10.05;70.98
75998;BME280;64685;48.762;44.822;2023-04-24T00:14:58;101642.09;;;10.07;71.14
75998;BME280;64685;48.762;44.822;2023-04-24T00:20:01;101629.63;;;9.99;71.14
75998;BME280;64685;48.762;44.822;2023-04-24T00:25:06;101634.81;;;9.87;71.32
75998;BME280;64685;48.762;44.822;2023-04-24T00:30:09;101625.03;;;9.61;71.81
75998;BME280;64685;48.762;44.822;2023-04-24T00:35:12;101630.50;;;9.43;71.68
75998;BME280;64685;48.762;44.822;2023-04-24T00:40:15;101634.09;;;9.15;72.07
75998;BME280;64685;48.762;44.822;2023-04-24T00:45:17;101642.09;;;8.88;72.89
75998;BME280;64685;48.762;44.822;2023-04-24T00:50:20;101635.16;;;8.85;73.11
75998;BME280;64685;48.762;44.822;2023-04-24T00:55:25;101634.34;;;8.85;73.29
75998;BME280;64685;48.762;44.822;2023-04-24T01:00:28;101628.53;;;8.81;72.66
75998;BME280;64685;48.762;44.822;2023-04-24T01:05:31;101627.19;;;8.74;73.09
75998;BME280;64685;48.762;44.822;2023-04-24T01:10:34;101623.03;;;8.66;73.66
75998;BME280;64685;48.762;44.822;2023-04-24T01:15:38;101631.41;;;8.66;73.91
75998;BME280;64685;48.762;44.822;2023-04-24T01:20:42;101623.91;;;8.62;74.17
75998;BME280;64685;48.762;44.822;2023-04-24T01:25:48;101634.22;;;8.56;74.09
75998;BME280;64685;48.762;44.822;2023-04-24T01:30:51;101639.56;;;8.48;74.35
75998;BME280;64685;48.762;44.822;2023-04-24T01:35:57;101633.16;;;8.52;74.26
75998;BME280;64685;48.762;44.822;2023-04-24T01:40:59;101632.81;;;8.64;74.51
75998;BME280;64685;48.762;44.822;2023-04-24T01:46:02;101641.38;;;8.72;74.30
75998;BME280;64685;48.762;44.822;2023-04-24T01:51:05;101640.19;;;8.83;74.52
75998;BME280;64685;48.762;44.822;2023-04-24T01:56:08;101649.38;;;8.89;74.55
75998;BME280;64685;48.762;44.822;2023-04-24T02:01:17;101651.84;;;8.90;74.43
75998;BME280;64685;48.762;44.822;2023-04-24T02:06:22;101651.81;;;8.95;74.52
75998;BME280;64685;48.762;44.822;2023-04-24T02:11:27;101651.41;;;9.12;74.82
75998;BME280;64685;48.762;44.822;2023-04-24T02:16:29;101659.44;;;9.18;74.96
75998;BME280;64685;48.762;44.822;2023-04-24T02:21:34;101654.06;;;9.27;74.83
75998;BME280;64685;48.762;44.822;2023-04-24T02:26:36;101648.94;;;9.39;75.37
75998;BME280;64685;48.762;44.822;2023-04-24T02:31:39;101666.88;;;9.61;74.64
75998;BME280;64685;48.762;44.822;2023-04-24T02:36:41;101673.34;;;9.80;75.20
75998;BME280;64685;48.762;44.822;2023-04-24T02:41:44;101676.47;;;9.79;75.05
75998;BME280;64685;48.762;44.822;2023-04-24T02:46:46;101674.44;;;9.84;74.95
75998;BME280;64685;48.762;44.822;2023-04-24T02:51:49;101672.78;;;9.83;74.56
75998;BME280;64685;48.762;44.822;2023-04-24T02:56:51;101677.81;;;9.81;75.04
75998;BME280;64685;48.762;44.822;2023-04-24T03:01:53;101659.44;;;9.75;76.20
75998;BME280;64685;48.762;44.822;2023-04-24T03:06:56;101675.91;;;9.77;75.56
75998;BME280;64685;48.762;44.822;2023-04-24T03:11:59;101675.19;;;9.90;75.91
75998;BME280;64685;48.762;44.822;2023-04-24T03:17:01;101672.34;;;10.23;76.22
75998;BME280;64685;48.762;44.822;2023-04-24T03:22:03;101698.41;;;10.61;75.84
75998;BME280;64685;48.762;44.822;2023-04-24T03:27:07;101701.16;;;11.03;76.03
75998;BME280;64685;48.762;44.822;2023-04-24T03:32:31;101693.97;;;11.15;75.20
75998;BME280;64685;48.762;44.822;2023-04-24T03:37:35;101700.47;;;11.29;75.07
75998;BME280;64685;48.762;44.822;2023-04-24T03:42:57;101705.13;;;11.52;74.45
75998;BME280;64685;48.762;44.822;2023-04-24T03:48:01;101695.03;;;11.70;74.67
75998;BME280;64685;48.762;44.822;2023-04-24T03:53:04;101703.25;;;11.80;74.45
75998;BME280;64685;48.762;44.822;2023-04-24T03:58:11;101722.84;;;12.12;73.37
75998;BME280;64685;48.762;44.822;2023-04-24T04:03:16;101738.94;;;12.47;73.15
75998;BME280;64685;48.762;44.822;2023-04-24T04:08:18;101740.69;;;12.83;72.28
75998;BME280;64685;48.762;44.822;2023-04-24T04:13:22;101732.47;;;13.14;71.50
75998;BME280;64685;48.762;44.822;2023-04-24T04:18:25;101728.97;;;13.30;70.98
75998;BME280;64685;48.762;44.822;2023-04-24T04:23:28;101745.59;;;13.62;70.34
75998;BME280;64685;48.762;44.822;2023-04-24T04:28:47;101737.41;;;13.96;69.56
75998;BME280;64685;48.762;44.822;2023-04-24T04:33:51;101738.44;;;14.22;68.75
75998;BME280;64685;48.762;44.822;2023-04-24T04:38:54;101736.75;;;14.43;67.99
75998;BME280;64685;48.762;44.822;2023-04-24T04:44:17;101739.69;;;14.77;66.82
75998;BME280;64685;48.762;44.822;2023-04-24T04:49:20;101727.25;;;15.34;66.05
75998;BME280;64685;48.762;44.822;2023-04-24T04:54:24;101740.81;;;15.49;64.06
75998;BME280;64685;48.762;44.822;2023-04-24T04:59:27;101743.75;;;16.03;62.43
75998;BME280;64685;48.762;44.822;2023-04-24T05:04:37;101745.72;;;16.11;61.37
75998;BME280;64685;48.762;44.822;2023-04-24T05:09:40;101751.41;;;15.77;61.08
75998;BME280;64685;48.762;44.822;2023-04-24T05:14:43;101745.09;;;16.06;60.47
75998;BME280;64685;48.762;44.822;2023-04-24T05:19:47;101737.28;;;16.95;59.29
75998;BME280;64685;48.762;44.822;2023-04-24T05:24:51;101738.53;;;18.08;57.33
75998;BME280;64685;48.762;44.822;2023-04-24T05:30:22;101737.09;;;19.43;53.48
75998;BME280;64685;48.762;44.822;2023-04-24T05:35:25;101760.94;;;21.26;48.71
75998;BME280;64685;48.762;44.822;2023-04-24T05:40:28;101759.94;;;20.87;49.83
75998;BME280;64685;48.762;44.822;2023-04-24T05:50:53;101763.72;;;24.34;44.03
75998;BME280;64685;48.762;44.822;2023-04-24T05:55:55;101759.66;;;25.76;39.57
75998;BME280;64685;48.762;44.822;2023-04-24T06:00:58;101758.06;;;24.08;37.23
75998;BME280;64685;48.762;44.822;2023-04-24T06:06:03;101756.09;;;23.27;37.38
75998;BME280;64685;48.762;44.822;2023-04-24T06:11:07;101742.72;;;23.08;37.27
75998;BME280;64685;48.762;44.822;2023-04-24T06:16:12;101757.88;;;22.07;37.99
75998;BME280;64685;48.762;44.822;2023-04-24T06:21:19;101751.56;;;22.55;37.61
75998;BME280;64685;48.762;44.822;2023-04-24T06:26:22;101762.47;;;22.72;37.16
75998;BME280;64685;48.762;44.822;2023-04-24T06:31:27;101755.09;;;22.93;35.77
75998;BME280;64685;48.762;44.822;2023-04-24T06:36:29;101743.88;;;23.26;35.67
75998;BME280;64685;48.762;44.822;2023-04-24T06:41:33;101756.91;;;24.49;34.37
75998;BME280;64685;48.762;44.822;2023-04-24T06:46:35;101768.16;;;23.43;34.87
75998;BME280;64685;48.762;44.822;2023-04-24T06:51:39;101773.47;;;22.96;35.14
75998;BME280;64685;48.762;44.822;2023-04-24T06:56:41;101787.13;;;23.32;34.90
75998;BME280;64685;48.762;44.822;2023-04-24T07:01:44;101773.31;;;22.44;35.70
75998;BME280;64685;48.762;44.822;2023-04-24T07:06:48;101775.28;;;22.21;36.39
75998;BME280;64685;48.762;44.822;2023-04-24T07:11:54;101774.38;;;22.17;37.21
75998;BME280;64685;48.762;44.822;2023-04-24T07:16:58;101783.03;;;22.62;35.69
75998;BME280;64685;48.762;44.822;2023-04-24T07:22:01;101775.50;;;22.50;34.79
75998;BME280;64685;48.762;44.822;2023-04-24T07:27:04;101779.69;;;22.18;35.97
75998;BME280;64685;48.762;44.822;2023-04-24T07:32:06;101777.28;;;21.48;36.97
75998;BME280;64685;48.762;44.822;2023-04-24T07:37:10;101787.81;;;21.63;37.35
75998;BME280;64685;48.762;44.822;2023-04-24T07:42:12;101782.34;;;21.39;37.88
75998;BME280;64685;48.762;44.822;2023-04-24T07:47:15;101772.97;;;21.54;36.94
75998;BME280;64685;48.762;44.822;2023-04-24T07:52:18;101764.41;;;21.35;37.44
75998;BME280;64685;48.762;44.822;2023-04-24T07:57:20;101783.47;;;21.03;38.58
75998;BME280;64685;48.762;44.822;2023-04-24T08:02:22;101766.03;;;20.58;39.81
75998;BME280;64685;48.762;44.822;2023-04-24T08:07:29;101753.81;;;20.27;41.08
75998;BME280;64685;48.762;44.822;2023-04-24T08:12:31;101748.50;;;19.98;42.14
75998;BME280;64685;48.762;44.822;2023-04-24T08:17:34;101733.13;;;19.99;42.23
75998;BME280;64685;48.762;44.822;2023-04-24T08:22:37;101734.63;;;20.36;41.43
75998;BME280;64685;48.762;44.822;2023-04-24T08:27:40;101738.47;;;20.28;38.95
75998;BME280;64685;48.762;44.822;2023-04-24T08:32:43;101727.94;;;20.44;38.72
75998;BME280;64685;48.762;44.822;2023-04-24T08:37:45;101714.06;;;20.54;38.37
75998;BME280;64685;48.762;44.822;2023-04-24T08:42:49;101710.47;;;21.04;38.02
75998;BME280;64685;48.762;44.822;2023-04-24T08:47:55;101697.53;;;21.41;37.00
75998;BME280;64685;48.762;44.822;2023-04-24T08:52:57;101722.69;;;21.96;36.35
75998;BME280;64685;48.762;44.822;2023-04-24T08:58:00;101715.38;;;21.95;35.18
75998;BME280;64685;48.762;44.822;2023-04-24T09:03:04;101696.06;;;22.26;34.74
75998;BME280;64685;48.762;44.822;2023-04-24T09:08:08;101707.56;;;22.11;35.29
75998;BME280;64685;48.762;44.822;2023-04-24T09:13:13;101707.78;;;23.37;34.10
75998;BME280;64685;48.762;44.822;2023-04-24T09:18:16;101740.69;;;23.31;33.64
75998;BME280;64685;48.762;44.822;2023-04-24T09:23:19;101689.66;;;21.53;36.48
75998;BME280;64685;48.762;44.822;2023-04-24T09:28:47;101692.00;;;21.67;36.65
75998;BME280;64685;48.762;44.822;2023-04-24T09:34:02;101689.00;;;21.06;37.74
75998;BME280;64685;48.762;44.822;2023-04-24T09:39:14;101685.63;;;20.39;39.34
75998;BME280;64685;48.762;44.822;2023-04-24T09:44:18;101677.13;;;20.08;40.42
75998;BME280;64685;48.762;44.822;2023-04-24T09:49:28;101675.31;;;19.33;41.76
75998;BME280;64685;48.762;44.822;2023-04-24T09:54:31;101669.75;;;19.36;42.40
75998;BME280;64685;48.762;44.822;2023-04-24T09:59:33;101673.44;;;19.01;43.38
75998;BME280;64685;48.762;44.822;2023-04-24T10:04:38;101662.38;;;18.84;44.28
75998;BME280;64685;48.762;44.822;2023-04-24T10:09:40;101656.94;;;18.91;44.34
75998;BME280;64685;48.762;44.822;2023-04-24T10:14:44;101635.50;;;18.78;44.57
75998;BME280;64685;48.762;44.822;2023-04-24T10:19:49;101653.19;;;18.63;44.46
75998;BME280;64685;48.762;44.822;2023-04-24T10:24:52;101656.25;;;18.46;44.07
75998;BME280;64685;48.762;44.822;2023-04-24T10:29:54;101645.28;;;18.44;44.84
75998;BME280;64685;48.762;44.822;2023-04-24T10:34:57;101634.28;;;18.19;45.50
75998;BME280;64685;48.762;44.822;2023-04-24T10:39:59;101623.81;;;18.19;45.97
75998;BME280;64685;48.762;44.822;2023-04-24T10:45:06;101621.53;;;18.01;45.88
75998;BME280;64685;48.762;44.822;2023-04-24T10:50:11;101617.81;;;18.21;45.39
75998;BME280;64685;48.762;44.822;2023-04-24T10:55:14;101605.31;;;18.22;45.72
75998;BME280;64685;48.762;44.822;2023-04-24T11:00:21;101600.31;;;17.83;47.73
75998;BME280;64685;48.762;44.822;2023-04-24T11:10:59;101586.94;;;17.59;50.34
75998;BME280;64685;48.762;44.822;2023-04-24T11:16:25;101564.81;;;17.49;51.37
75998;BME280;64685;48.762;44.822;2023-04-24T11:21:46;101576.03;;;17.70;51.48
75998;BME280;64685;48.762;44.822;2023-04-24T11:26:51;101560.41;;;18.08;50.09
75998;BME280;64685;48.762;44.822;2023-04-24T11:31:55;101553.94;;;18.44;48.29
75998;BME280;64685;48.762;44.822;2023-04-24T11:36:59;101551.72;;;18.89;46.28
75998;BME280;64685;48.762;44.822;2023-04-24T11:42:03;101527.75;;;19.26;45.27
75998;BME280;64685;48.762;44.822;2023-04-24T11:47:06;101539.31;;;18.93;47.34
75998;BME280;64685;48.762;44.822;2023-04-24T11:52:15;101527.84;;;19.02;48.00
75998;BME280;64685;48.762;44.822;2023-04-24T11:57:21;101527.72;;;18.71;51.20
75998;BME280;64685;48.762;44.822;2023-04-24T12:02:26;101521.06;;;18.15;52.93
75998;BME280;64685;48.762;44.822;2023-04-24T12:07:29;101513.38;;;17.80;55.15
75998;BME280;64685;48.762;44.822;2023-04-24T12:12:32;101522.06;;;17.51;55.57
75998;BME280;64685;48.762;44.822;2023-04-24T12:17:35;101508.91;;;17.67;55.54
75998;BME280;64685;48.762;44.822;2023-04-24T12:28:15;101504.22;;;17.83;51.95
75998;BME280;64685;48.762;44.822;2023-04-24T12:33:18;101506.19;;;17.58;50.78
75998;BME280;64685;48.762;44.822;2023-04-24T12:38:22;101487.88;;;17.32;49.83
75998;BME280;64685;48.762;44.822;2023-04-24T12:43:26;101492.97;;;17.06;49.77
75998;BME280;64685;48.762;44.822;2023-04-24T12:48:29;101478.69;;;16.90;50.92
75998;BME280;64685;48.762;44.822;2023-04-24T12:53:32;101474.59;;;16.67;52.31
75998;BME280;64685;48.762;44.822;2023-04-24T12:58:35;101477.88;;;16.49;53.07
75998;BME280;64685;48.762;44.822;2023-04-24T13:03:37;101473.06;;;16.00;54.29
75998;BME280;64685;48.762;44.822;2023-04-24T13:08:40;101470.09;;;15.67;56.35
75998;BME280;64685;48.762;44.822;2023-04-24T13:13:42;101478.47;;;15.47;57.07
75998;BME280;64685;48.762;44.822;2023-04-24T13:18:45;101465.44;;;15.42;58.09
75998;BME280;64685;48.762;44.822;2023-04-24T13:23:47;101478.38;;;15.35;59.53
75998;BME280;64685;48.762;44.822;2023-04-24T13:28:50;101480.16;;;15.31;60.06
75998;BME280;64685;48.762;44.822;2023-04-24T13:33:52;101470.13;;;15.13;60.98
75998;BME280;64685;48.762;44.822;2023-04-24T13:38:54;101455.59;;;15.02;61.71
75998;BME280;64685;48.762;44.822;2023-04-24T13:43:57;101453.25;;;15.04;62.23
75998;BME280;64685;48.762;44.822;2023-04-24T13:48:59;101448.59;;;15.17;62.46
75998;BME280;64685;48.762;44.822;2023-04-24T13:54:02;101448.59;;;15.17;61.77
75998;BME280;64685;48.762;44.822;2023-04-24T13:59:05;101446.75;;;15.21;61.18
75998;BME280;64685;48.762;44.822;2023-04-24T14:04:08;101432.34;;;15.22;60.54
75998;BME280;64685;48.762;44.822;2023-04-24T14:09:10;101419.59;;;15.25;60.71
75998;BME280;64685;48.762;44.822;2023-04-24T14:14:13;101421.59;;;15.24;60.34
75998;BME280;64685;48.762;44.822;2023-04-24T14:19:15;101409.78;;;15.31;59.84
75998;BME280;64685;48.762;44.822;2023-04-24T14:24:18;101417.06;;;15.32;60.07
75998;BME280;64685;48.762;44.822;2023-04-24T14:29:20;101406.00;;;15.27;59.93
75998;BME280;64685;48.762;44.822;2023-04-24T14:34:23;101401.34;;;15.31;59.21
75998;BME280;64685;48.762;44.822;2023-04-24T14:39:25;101394.22;;;15.42;59.60
75998;BME280;64685;48.762;44.822;2023-04-24T14:44:28;101379.81;;;15.43;59.12
75998;BME280;64685;48.762;44.822;2023-04-24T14:49:30;101392.38;;;15.46;59.00
75998;BME280;64685;48.762;44.822;2023-04-24T14:54:33;101371.97;;;15.49;58.35
75998;BME280;64685;48.762;44.822;2023-04-24T14:59:35;101397.50;;;15.52;58.13
75998;BME280;64685;48.762;44.822;2023-04-24T15:04:37;101394.66;;;15.52;57.99
75998;BME280;64685;48.762;44.822;2023-04-24T15:09:41;101391.69;;;15.49;57.58
75998;BME280;64685;48.762;44.822;2023-04-24T15:14:43;101388.53;;;15.50;58.34
75998;BME280;64685;48.762;44.822;2023-04-24T15:19:45;101397.31;;;15.49;58.31
75998;BME280;64685;48.762;44.822;2023-04-24T15:24:48;101394.50;;;15.49;58.86
75998;BME280;64685;48.762;44.822;2023-04-24T15:29:50;101389.94;;;15.27;59.67
75998;BME280;64685;48.762;44.822;2023-04-24T15:34:53;101393.09;;;15.26;60.69
75998;BME280;64685;48.762;44.822;2023-04-24T15:40:11;101380.00;;;15.30;60.56
75998;BME280;64685;48.762;44.822;2023-04-24T15:45:15;101377.72;;;15.23;60.96
75998;BME280;64685;48.762;44.822;2023-04-24T15:50:17;101382.81;;;15.30;60.86
75998;BME280;64685;48.762;44.822;2023-04-24T15:55:23;101386.81;;;15.29;61.02
75998;BME280;64685;48.762;44.822;2023-04-24T16:00:26;101394.56;;;15.32;61.47
75998;BME280;64685;48.762;44.822;2023-04-24T16:05:35;101378.94;;;15.05;62.92
75998;BME280;64685;48.762;44.822;2023-04-24T16:10:38;101363.81;;;14.81;63.85
75998;BME280;64685;48.762;44.822;2023-04-24T16:15:40;101358.13;;;14.43;65.65
75998;BME280;64685;48.762;44.822;2023-04-24T16:20:43;101357.81;;;14.19;67.53
75998;BME280;64685;48.762;44.822;2023-04-24T16:25:45;101355.13;;;14.06;69.06
75998;BME280;64685;48.762;44.822;2023-04-24T16:30:48;101355.97;;;13.89;70.04
75998;BME280;64685;48.762;44.822;2023-04-24T16:35:50;101349.03;;;13.87;70.73
75998;BME280;64685;48.762;44.822;2023-04-24T16:40:53;101339.13;;;13.73;71.85
75998;BME280;64685;48.762;44.822;2023-04-24T16:45:56;101349.00;;;13.62;72.94
75998;BME280;64685;48.762;44.822;2023-04-24T16:50:59;101342.25;;;13.63;73.43
75998;BME280;64685;48.762;44.822;2023-04-24T16:56:02;101331.81;;;13.63;73.90
75998;BME280;64685;48.762;44.822;2023-04-24T17:01:05;101322.56;;;13.54;74.33
75998;BME280;64685;48.762;44.822;2023-04-24T17:06:08;101316.28;;;13.40;75.24
75998;BME280;64685;48.762;44.822;2023-04-24T17:11:10;101328.16;;;13.29;75.81
75998;BME280;64685;48.762;44.822;2023-04-24T17:16:13;101319.50;;;13.08;76.90
75998;BME280;64685;48.762;44.822;2023-04-24T17:21:15;101320.03;;;12.88;78.12
75998;BME280;64685;48.762;44.822;2023-04-24T17:26:18;101322.47;;;12.73;79.12
75998;BME280;64685;48.762;44.822;2023-04-24T17:31:20;101317.13;;;12.63;80.07
75998;BME280;64685;48.762;44.822;2023-04-24T17:36:24;101298.66;;;12.62;81.08
75998;BME280;64685;48.762;44.822;2023-04-24T17:41:26;101283.50;;;12.63;81.32
75998;BME280;64685;48.762;44.822;2023-04-24T17:46:29;101285.16;;;12.64;82.07
75998;BME280;64685;48.762;44.822;2023-04-24T17:51:31;101280.38;;;12.64;82.25
75998;BME280;64685;48.762;44.822;2023-04-24T17:56:34;101275.59;;;12.65;82.61
75998;BME280;64685;48.762;44.822;2023-04-24T18:01:36;101244.31;;;12.71;82.63
75998;BME280;64685;48.762;44.822;2023-04-24T18:06:39;101255.81;;;12.70;82.67
75998;BME280;64685;48.762;44.822;2023-04-24T18:11:42;101267.84;;;12.62;82.86
75998;BME280;64685;48.762;44.822;2023-04-24T18:16:44;101258.13;;;12.68;83.61
75998;BME280;64685;48.762;44.822;2023-04-24T18:21:46;101251.88;;;12.71;83.69
75998;BME280;64685;48.762;44.822;2023-04-24T18:26:49;101242.34;;;12.72;83.45
75998;BME280;64685;48.762;44.822;2023-04-24T18:31:51;101250.91;;;12.75;83.62
75998;BME280;64685;48.762;44.822;2023-04-24T18:36:54;101234.41;;;12.74;83.84
75998;BME280;64685;48.762;44.822;2023-04-24T18:41:56;101233.25;;;12.75;84.21
75998;BME280;64685;48.762;44.822;2023-04-24T18:46:59;101226.19;;;12.77;84.37
75998;BME280;64685;48.762;44.822;2023-04-24T18:52:02;101227.50;;;12.80;84.32
75998;BME280;64685;48.762;44.822;2023-04-24T18:57:05;101216.31;;;12.88;84.29
75998;BME280;64685;48.762;44.822;2023-04-24T19:02:07;101196.38;;;12.90;84.35
75998;BME280;64685;48.762;44.822;2023-04-24T19:07:10;101197.53;;;12.89;84.27
75998;BME280;64685;48.762;44.822;2023-04-24T19:12:12;101188.28;;;12.88;83.95
75998;BME280;64685;48.762;44.822;2023-04-24T19:17:14;101155.47;;;12.89;84.33
75998;BME280;64685;48.762;44.822;2023-04-24T19:22:23;101161.94;;;12.98;84.55
75998;BME280;64685;48.762;44.822;2023-04-24T19:27:25;101133.44;;;13.04;84.36
75998;BME280;64685;48.762;44.822;2023-04-24T19:32:28;101136.88;;;13.10;84.15
75998;BME280;64685;48.762;44.822;2023-04-24T19:37:30;101113.78;;;13.13;84.04
75998;BME280;64685;48.762;44.822;2023-04-24T19:42:35;101093.16;;;13.17;83.91
75998;BME280;64685;48.762;44.822;2023-04-24T19:47:44;101120.56;;;13.20;83.69
75998;BME280;64685;48.762;44.822;2023-04-24T19:52:47;101128.97;;;13.20;83.44
75998;BME280;64685;48.762;44.822;2023-04-24T19:57:50;101087.22;;;13.19;83.33
75998;BME280;64685;48.762;44.822;2023-04-24T20:02:52;101066.59;;;13.23;83.05
75998;BME280;64685;48.762;44.822;2023-04-24T20:07:55;101060.00;;;13.28;83.04
75998;BME280;64685;48.762;44.822;2023-04-24T20:12:57;101052.56;;;13.32;82.82
75998;BME280;64685;48.762;44.822;2023-04-24T20:18:00;101055.34;;;13.32;82.62
75998;BME280;64685;48.762;44.822;2023-04-24T20:23:04;101038.50;;;13.40;82.58
75998;BME280;64685;48.762;44.822;2023-04-24T20:28:06;101041.81;;;13.42;82.11
75998;BME280;64685;48.762;44.822;2023-04-24T20:33:09;101033.56;;;13.46;81.52
75998;BME280;64685;48.762;44.822;2023-04-24T20:38:11;101011.91;;;13.46;81.55
75998;BME280;64685;48.762;44.822;2023-04-24T20:43:14;101018.03;;;13.48;81.41
75998;BME280;64685;48.762;44.822;2023-04-24T20:48:16;101017.66;;;13.49;81.31
75998;BME280;64685;48.762;44.822;2023-04-24T20:53:19;101017.84;;;13.53;81.30
75998;BME280;64685;48.762;44.822;2023-04-24T20:58:22;101021.28;;;13.58;81.01
75998;BME280;64685;48.762;44.822;2023-04-24T21:03:24;101019.94;;;13.64;80.41
75998;BME280;64685;48.762;44.822;2023-04-24T21:08:28;101003.06;;;13.73;80.00
75998;BME280;64685;48.762;44.822;2023-04-24T21:13:30;100996.94;;;13.79;79.44
75998;BME280;64685;48.762;44.822;2023-04-24T21:18:33;100993.63;;;13.77;78.90
75998;BME280;64685;48.762;44.822;2023-04-24T21:23:35;101004.81;;;13.86;78.19
75998;BME280;64685;48.762;44.822;2023-04-24T21:28:38;101020.38;;;13.75;78.13
75998;BME280;64685;48.762;44.822;2023-04-24T21:33:40;101008.34;;;13.74;77.72
75998;BME280;64685;48.762;44.822;2023-04-24T21:38:42;100996.69;;;13.64;78.17
75998;BME280;64685;48.762;44.822;2023-04-24T21:43:45;100995.88;;;13.55;78.28
75998;BME280;64685;48.762;44.822;2023-04-24T21:48:50;100983.06;;;13.46;78.52
75998;BME280;64685;48.762;44.822;2023-04-24T21:53:52;100975.28;;;13.43;79.06
75998;BME280;64685;48.762;44.822;2023-04-24T21:58:55;100958.16;;;13.36;79.51
75998;BME280;64685;48.762;44.822;2023-04-24T22:03:58;100954.34;;;13.40;79.71
75998;BME280;64685;48.762;44.822;2023-04-24T22:09:01;100951.06;;;13.38;79.97
75998;BME280;64685;48.762;44.822;2023-04-24T22:14:03;100929.28;;;13.35;79.77
75998;BME280;64685;48.762;44.822;2023-04-24T22:19:08;100919.34;;;13.38;79.79
75998;BME280;64685;48.762;44.822;2023-04-24T22:24:11;100895.75;;;13.38;79.36
75998;BME280;64685;48.762;44.822;2023-04-24T22:29:13;100885.22;;;13.36;79.40
75998;BME280;64685;48.762;44.822;2023-04-24T22:34:16;100864.75;;;13.35;79.25
75998;BME280;64685;48.762;44.822;2023-04-24T22:39:20;100851.22;;;13.37;79.13
75998;BME280;64685;48.762;44.822;2023-04-24T22:44:23;100859.59;;;13.46;78.89
75998;BME280;64685;48.762;44.822;2023-04-24T22:49:25;100845.66;;;13.57;78.19
75998;BME280;64685;48.762;44.822;2023-04-24T22:54:30;100812.78;;;13.58;77.28
75998;BME280;64685;48.762;44.822;2023-04-24T22:59:32;100809.31;;;13.61;76.86
75998;BME280;64685;48.762;44.822;2023-04-24T23:04:35;100807.03;;;13.54;77.03
75998;BME280;64685;48.762;44.822;2023-04-24T23:09:37;100799.97;;;13.48;76.84
75998;BME280;64685;48.762;44.822;2023-04-24T23:14:40;100773.41;;;13.46;77.24
75998;BME280;64685;48.762;44.822;2023-04-24T23:19:42;100771.66;;;13.42;77.28
75998;BME280;64685;48.762;44.822;2023-04-24T23:24:45;100755.66;;;13.42;77.28
75998;BME280;64685;48.762;44.822;2023-04-24T23:29:47;100747.69;;;13.44;77.40
75998;BME280;64685;48.762;44.822;2023-04-24T23:34:50;100740.31;;;13.40;77.29
75998;BME280;64685;48.762;44.822;2023-04-24T23:39:52;100730.22;;;13.38;77.48
75998;BME280;64685;48.762;44.822;2023-04-24T23:44:55;100730.09;;;13.35;77.58
75998;BME280;64685;48.762;44.822;2023-04-24T23:49:57;100719.00;;;13.38;77.79
75998;BME280;64685;48.762;44.822;2023-04-24T23:55:03;100709.31;;;13.36;77.92
